createdAt,value
2022-08-17T00:10:23.519Z,85.32
2022-08-17T00:25:29.327Z,88.07
2022-08-17T00:40:40.647Z,89.53
2022-08-17T00:55:50.922Z,92.43
2022-08-17T01:11:02.112Z,92.04
2022-08-17T01:26:08.069Z,90.63
2022-08-17T01:41:17.324Z,90.54
2022-08-17T01:56:26.137Z,90.36
2022-08-17T02:11:32.608Z,92.52
2022-08-17T02:26:38.276Z,93.27
2022-08-17T02:41:45.389Z,96.77
2022-08-17T02:56:51.374Z,97.19
2022-08-17T03:11:57.469Z,96.17
2022-08-17T03:27:03.011Z,97.84
2022-08-17T03:42:31.953Z,98.56
2022-08-17T03:57:40.202Z,100.33
2022-08-17T04:12:48.968Z,102.31
2022-08-17T04:27:55.246Z,101.85
2022-08-17T04:43:06.233Z,101.40
2022-08-17T04:58:12.624Z,100.49
2022-08-17T05:13:20.289Z,100.28
2022-08-17T05:28:28.559Z,100.21
2022-08-17T05:43:37.053Z,98.74
2022-08-17T05:58:51.332Z,99.64
2022-08-17T06:14:08.761Z,95.78
2022-08-17T06:29:23.307Z,93.27
2022-08-17T06:44:50.056Z,90.53
2022-08-17T07:00:02.374Z,89.33
2022-08-17T07:15:15.957Z,82.95
2022-08-17T07:30:24.841Z,82.32
2022-08-17T07:45:48.576Z,80.71
2022-08-17T08:01:09.289Z,76.46
2022-08-17T08:16:25.731Z,75.31
2022-08-17T08:31:45.767Z,76.11
2022-08-17T08:47:00.820Z,83.03
2022-08-17T09:02:18.936Z,88.57
2022-08-17T09:17:34.118Z,90.12
2022-08-17T09:32:44.281Z,89.32
2022-08-17T09:47:55.122Z,92.96
2022-08-17T10:03:28.515Z,89.75
2022-08-17T10:18:44.524Z,83.75
2022-08-17T10:34:17.630Z,83.61
2022-08-17T10:49:30.714Z,84.08
2022-08-17T11:04:53.821Z,77.85
2022-08-17T11:20:24.526Z,72.26
2022-08-17T11:35:45.318Z,67.27
2022-08-17T11:51:19.461Z,68.69
2022-08-17T12:06:38.261Z,62.65
2022-08-17T12:21:50.823Z,59.16
2022-08-17T12:37:01.480Z,57.06
2022-08-17T12:52:15.838Z,57.89
2022-08-17T13:07:35.356Z,54.07
2022-08-17T13:22:43.578Z,56.97
2022-08-17T13:38:02.654Z,59.03
2022-08-17T13:53:20.977Z,61.86
2022-08-17T14:08:30.984Z,65.59
2022-08-17T14:23:37.189Z,69.00
2022-08-17T14:38:42.834Z,94.28
2022-08-17T14:53:48.569Z,95.07
2022-08-17T15:08:54.518Z,95.46
2022-08-17T15:24:00.401Z,97.07
2022-08-17T15:39:06.134Z,93.03
2022-08-17T15:54:18.711Z,95.59
2022-08-17T16:09:27.800Z,94.64
2022-08-17T16:24:34.349Z,96.76
2022-08-17T16:39:41.059Z,95.75
2022-08-17T16:54:46.988Z,95.49
2022-08-17T17:09:55.692Z,96.39
2022-08-17T17:25:09.892Z,98.43
2022-08-17T17:40:24.102Z,99.33
2022-08-17T17:55:39.904Z,99.31
2022-08-17T18:10:51.413Z,100.54
2022-08-17T18:25:59.083Z,96.56
2022-08-17T18:41:19.493Z,100.48
2022-08-17T18:56:33.101Z,102.24
2022-08-17T19:11:39.409Z,102.52
2022-08-17T19:26:59.903Z,103.60
2022-08-17T19:42:11.063Z,104.13
2022-08-17T19:57:37.153Z,104.44
2022-08-17T20:12:45.857Z,105.64
2022-08-17T20:27:56.604Z,106.68
2022-08-17T20:44:02.183Z,107.24
2022-08-17T20:59:08.060Z,107.58
2022-08-17T21:14:22.769Z,108.32
2022-08-17T21:29:32.821Z,108.57
2022-08-17T21:44:43.134Z,108.56
2022-08-17T21:59:53.756Z,108.72
2022-08-17T22:15:04.453Z,109.14
2022-08-17T22:30:27.820Z,109.00
2022-08-17T22:45:34.029Z,109.48
2022-08-17T23:00:42.874Z,109.93
2022-08-17T23:15:49.490Z,110.33
2022-08-17T23:30:55.032Z,109.98
2022-08-17T23:46:03.880Z,110.49
